createdAt,value
2019-02-18T00:00:40.000Z,3.00
2019-02-18T00:03:07.767Z,4.83
2019-02-18T00:05:35.008Z,4.50
2019-02-18T00:08:01.445Z,5.27
2019-02-18T00:10:28.074Z,4.23
2019-02-18T00:12:55.131Z,3.53
2019-02-18T00:15:22.004Z,4.43
2019-02-18T00:17:48.533Z,3.60
2019-02-18T00:20:15.116Z,3.43
2019-02-18T00:22:41.936Z,4.80
2019-02-18T00:25:08.726Z,4.07
2019-02-18T00:27:35.559Z,4.17
2019-02-18T00:30:03.072Z,4.80
2019-02-18T00:32:31.126Z,4.33
2019-02-18T00:34:57.630Z,3.93
2019-02-18T00:37:24.838Z,3.83
2019-02-18T00:39:51.629Z,4.63
2019-02-18T00:42:18.413Z,4.10
2019-02-18T00:44:44.863Z,4.13
2019-02-18T00:47:11.522Z,4.43
2019-02-18T00:49:38.053Z,3.93
2019-02-18T00:52:04.585Z,3.60
2019-02-18T00:54:31.096Z,3.43
2019-02-18T00:56:57.885Z,4.00
2019-02-18T00:59:24.396Z,4.03
2019-02-18T01:01:50.970Z,4.40
2019-02-18T01:04:17.592Z,4.63
2019-02-18T01:06:44.413Z,3.50
2019-02-18T01:09:10.921Z,4.40
2019-02-18T01:11:37.463Z,3.70
2019-02-18T01:14:04.146Z,4.40
2019-02-18T01:16:31.781Z,4.23
2019-02-18T01:18:58.330Z,3.57
2019-02-18T01:21:24.890Z,3.30
2019-02-18T01:23:51.659Z,2.90
2019-02-18T01:26:18.223Z,4.03
2019-02-18T01:28:45.114Z,3.43
2019-02-18T01:31:11.657Z,3.17
2019-02-18T01:33:38.080Z,3.00
2019-02-18T01:36:04.897Z,3.43
2019-02-18T01:38:31.438Z,3.00
2019-02-18T01:40:57.975Z,3.33
2019-02-18T01:43:24.794Z,3.40
2019-02-18T01:45:51.612Z,2.90
2019-02-18T01:48:18.160Z,3.47
2019-02-18T01:50:45.629Z,3.83
2019-02-18T01:53:12.402Z,4.17
2019-02-18T01:55:38.846Z,3.63
2019-02-18T01:58:05.666Z,3.40
2019-02-18T02:00:32.232Z,3.17
2019-02-18T02:02:59.152Z,3.13
2019-02-18T02:05:25.940Z,3.40
2019-02-18T02:07:56.468Z,2.80
2019-02-18T02:10:21.385Z,3.40
2019-02-18T02:12:48.231Z,4.23
2019-02-18T02:15:19.535Z,3.20
2019-02-18T02:17:46.345Z,3.87
2019-02-18T02:20:13.124Z,3.50
2019-02-18T02:22:39.819Z,3.33
2019-02-18T02:25:06.503Z,2.30
2019-02-18T02:27:33.028Z,2.13
2019-02-18T02:29:59.534Z,2.03
2019-02-18T02:32:25.941Z,2.00
2019-02-18T02:34:52.451Z,2.70
2019-02-18T02:37:19.031Z,2.00
2019-02-18T02:39:45.768Z,3.73
2019-02-18T02:42:12.396Z,2.10
2019-02-18T02:44:40.336Z,2.10
2019-02-18T02:47:06.891Z,4.00
2019-02-18T02:49:33.393Z,2.73
2019-02-18T02:51:59.984Z,2.10
2019-02-18T02:54:26.521Z,2.00
2019-02-18T02:56:53.400Z,1.70
2019-02-18T02:59:20.121Z,3.30
2019-02-18T03:01:46.547Z,2.43
2019-02-18T03:04:13.206Z,1.97
2019-02-18T03:06:39.727Z,1.93
2019-02-18T03:09:07.760Z,2.73
2019-02-18T03:11:34.367Z,2.73
2019-02-18T03:14:00.905Z,2.10
2019-02-18T03:16:27.526Z,2.13
2019-02-18T03:18:54.404Z,2.13
2019-02-18T03:21:21.294Z,2.63
2019-02-18T03:23:48.804Z,2.70
2019-02-18T03:26:15.605Z,2.63
2019-02-18T03:28:58.193Z,2.13
2019-02-18T03:31:26.105Z,2.40
2019-02-18T03:33:59.193Z,2.20
2019-02-18T03:36:26.019Z,3.03
2019-02-18T03:38:52.552Z,3.00
2019-02-18T03:41:19.244Z,2.50
2019-02-18T03:43:45.792Z,2.70
2019-02-18T03:46:12.307Z,1.90
2019-02-18T03:48:38.720Z,1.87
2019-02-18T03:51:05.516Z,2.27
2019-02-18T03:53:32.333Z,2.10
2019-02-18T03:55:58.730Z,2.50
2019-02-18T03:58:25.281Z,2.27
2019-02-18T04:00:52.058Z,1.90
2019-02-18T04:03:18.613Z,2.13
2019-02-18T04:05:45.376Z,2.00
2019-02-18T04:08:11.803Z,2.20
2019-02-18T04:10:38.308Z,3.20
2019-02-18T04:13:04.778Z,3.10
2019-02-18T04:15:31.211Z,2.70
2019-02-18T04:17:57.688Z,2.42
2019-02-18T04:20:24.113Z,3.00
2019-02-18T04:22:50.803Z,3.02
2019-02-18T04:25:18.371Z,2.85
2019-02-18T04:27:44.834Z,2.03
2019-02-18T04:30:13.648Z,3.73
2019-02-18T04:32:40.155Z,3.70
2019-02-18T04:35:07.539Z,3.87
2019-02-18T04:37:34.386Z,2.77
2019-02-18T04:40:00.914Z,2.80
2019-02-18T04:42:27.875Z,2.80
2019-02-18T04:44:54.503Z,2.83
2019-02-18T04:47:21.273Z,2.58
2019-02-18T04:49:47.759Z,2.70
2019-02-18T04:52:16.243Z,2.83
2019-02-18T04:54:42.998Z,3.30
2019-02-18T04:57:09.551Z,2.50
2019-02-18T04:59:36.407Z,4.42
2019-02-18T05:02:02.835Z,4.25
2019-02-18T05:04:29.288Z,3.37
2019-02-18T05:06:55.820Z,3.33
2019-02-18T05:09:22.390Z,2.83
2019-02-18T05:11:48.841Z,2.45
2019-02-18T05:14:15.371Z,2.25
2019-02-18T05:16:42.105Z,2.58
2019-02-18T05:19:08.620Z,3.33
2019-02-18T05:21:35.057Z,2.73
2019-02-18T05:24:01.717Z,3.77
2019-02-18T05:26:28.576Z,3.80
2019-02-18T05:28:55.582Z,3.20
2019-02-18T05:31:22.410Z,4.40
2019-02-18T05:33:48.974Z,4.08
2019-02-18T05:36:15.582Z,3.35
2019-02-18T05:38:42.120Z,3.72
2019-02-18T05:41:09.730Z,3.75
2019-02-18T05:43:36.525Z,3.00
2019-02-18T05:46:03.067Z,3.08
2019-02-18T05:48:29.548Z,3.07
2019-02-18T05:50:55.977Z,3.83
2019-02-18T05:53:23.513Z,2.80
2019-02-18T05:55:50.048Z,2.60
2019-02-18T05:58:16.595Z,2.85
2019-02-18T06:00:43.143Z,3.33
2019-02-18T06:03:11.071Z,3.25
2019-02-18T06:05:37.960Z,2.30
2019-02-18T06:08:04.403Z,2.40
2019-02-18T06:10:30.895Z,2.27
2019-02-18T06:12:58.419Z,2.30
2019-02-18T06:15:24.965Z,2.95
2019-02-18T06:17:51.494Z,3.90
2019-02-18T06:20:17.993Z,4.73
2019-02-18T06:22:44.788Z,4.37
2019-02-18T06:25:11.690Z,4.12
2019-02-18T06:27:38.238Z,3.65
2019-02-18T06:30:08.181Z,3.72
2019-02-18T06:32:34.968Z,3.10
2019-02-18T06:35:01.518Z,3.15
2019-02-18T06:37:28.136Z,2.98
2019-02-18T06:39:54.661Z,2.60
2019-02-18T06:42:21.273Z,2.70
2019-02-18T06:44:49.692Z,2.73
2019-02-18T06:47:18.108Z,4.20
2019-02-18T06:49:44.944Z,3.25
2019-02-18T06:52:11.619Z,2.83
2019-02-18T06:54:39.229Z,3.20
2019-02-18T06:57:10.655Z,3.70
2019-02-18T06:59:39.119Z,3.13
2019-02-18T07:02:22.697Z,2.40
2019-02-18T07:04:56.864Z,2.67
2019-02-18T07:07:25.359Z,2.50
2019-02-18T07:09:58.801Z,2.90
2019-02-18T07:12:27.207Z,3.10
2019-02-18T07:14:54.720Z,2.35
2019-02-18T07:17:21.276Z,2.95
2019-02-18T07:19:47.795Z,3.90
2019-02-18T07:22:14.205Z,2.37
2019-02-18T07:24:42.039Z,2.20
2019-02-18T07:27:08.791Z,2.67
2019-02-18T07:29:35.198Z,2.03
2019-02-18T07:32:01.727Z,3.00
2019-02-18T07:34:28.368Z,2.37
2019-02-18T07:36:55.040Z,2.63
2019-02-18T07:39:21.530Z,3.07
2019-02-18T07:41:48.331Z,2.97
2019-02-18T07:44:14.768Z,2.13
2019-02-18T07:46:41.288Z,2.43
2019-02-18T07:49:07.719Z,2.63
2019-02-18T07:51:34.575Z,2.90
2019-02-18T07:54:01.420Z,3.70
2019-02-18T07:56:27.959Z,3.50
2019-02-18T07:58:54.956Z,3.50
2019-02-18T08:01:22.608Z,3.60
2019-02-18T08:03:49.462Z,3.13
2019-02-18T08:06:16.338Z,3.23
2019-02-18T08:08:43.026Z,3.40
2019-02-18T08:11:09.565Z,2.80
2019-02-18T08:13:36.254Z,3.20
2019-02-18T08:16:03.079Z,3.07
2019-02-18T08:18:29.598Z,3.00
2019-02-18T08:20:56.655Z,3.40
2019-02-18T08:23:23.476Z,2.97
2019-02-18T08:25:50.171Z,2.90
2019-02-18T08:28:16.786Z,3.23
2019-02-18T08:30:43.420Z,2.80
2019-02-18T08:33:09.917Z,3.20
2019-02-18T08:35:36.775Z,2.53
2019-02-18T08:38:03.293Z,2.67
2019-02-18T08:40:30.037Z,3.37
2019-02-18T08:42:56.969Z,3.73
2019-02-18T08:45:23.666Z,3.83
2019-02-18T08:47:50.443Z,4.40
2019-02-18T08:50:17.262Z,5.40
2019-02-18T08:52:44.644Z,9.97
2019-02-18T08:55:12.488Z,13.77
2019-02-18T08:57:39.267Z,14.27
2019-02-18T09:00:14.851Z,13.67
2019-02-18T09:02:42.526Z,11.10
2019-02-18T09:05:09.147Z,9.47
2019-02-18T09:07:36.009Z,10.60
2019-02-18T09:10:05.612Z,10.23
2019-02-18T09:12:32.123Z,9.73
2019-02-18T09:14:58.519Z,9.07
2019-02-18T09:17:25.328Z,9.37
2019-02-18T09:19:51.850Z,8.10
2019-02-18T09:22:35.259Z,7.50
2019-02-18T09:25:07.481Z,7.27
2019-02-18T09:27:34.317Z,6.73
2019-02-18T09:30:01.123Z,7.50
2019-02-18T09:32:28.527Z,9.13
2019-02-18T09:35:01.755Z,8.63
2019-02-18T09:37:23.607Z,8.77
2019-02-18T09:39:50.176Z,8.43
2019-02-18T09:42:17.099Z,8.03
2019-02-18T09:44:44.628Z,7.47
2019-02-18T09:47:11.297Z,7.57
2019-02-18T09:49:37.759Z,6.77
2019-02-18T09:52:05.377Z,7.60
2019-02-18T09:54:31.875Z,8.53
2019-02-18T09:56:58.500Z,8.40
2019-02-18T09:59:25.316Z,7.80
2019-02-18T10:01:51.811Z,8.40
2019-02-18T10:04:18.510Z,9.80
2019-02-18T10:06:46.010Z,19.20
2019-02-18T10:09:12.511Z,20.90
2019-02-18T10:11:39.166Z,18.17
2019-02-18T10:14:05.686Z,19.73
2019-02-18T10:16:32.483Z,23.67
2019-02-18T10:18:58.915Z,24.40
2019-02-18T10:21:25.350Z,21.00
2019-02-18T10:23:51.842Z,20.70
2019-02-18T10:26:18.372Z,17.30
2019-02-18T10:28:45.156Z,12.60
2019-02-18T10:31:11.558Z,13.53
2019-02-18T10:33:38.205Z,9.40
2019-02-18T10:36:04.784Z,9.23
2019-02-18T10:38:31.588Z,8.33
2019-02-18T10:41:06.497Z,6.90
2019-02-18T10:43:32.381Z,6.40
2019-02-18T10:45:54.994Z,7.23
2019-02-18T10:48:21.807Z,6.97
2019-02-18T10:50:48.325Z,6.83
2019-02-18T10:53:14.862Z,6.63
2019-02-18T10:55:41.370Z,6.50
2019-02-18T10:58:07.973Z,6.70
2019-02-18T11:00:34.503Z,6.23
2019-02-18T11:03:01.010Z,6.93
2019-02-18T11:05:28.543Z,6.20
2019-02-18T11:07:55.674Z,6.90
2019-02-18T11:10:22.535Z,5.57
2019-02-18T11:12:49.392Z,6.43
2019-02-18T11:15:15.912Z,6.20
2019-02-18T11:17:42.765Z,6.00
2019-02-18T11:20:10.775Z,6.10
2019-02-18T11:22:37.485Z,5.40
2019-02-18T11:25:07.135Z,5.50
2019-02-18T11:27:34.031Z,5.93
2019-02-18T11:30:00.594Z,5.70
2019-02-18T11:32:27.172Z,6.00
2019-02-18T11:34:55.155Z,5.75
2019-02-18T11:37:21.676Z,6.80
2019-02-18T11:39:48.195Z,5.78
2019-02-18T11:42:14.702Z,5.83
2019-02-18T11:44:41.235Z,5.95
2019-02-18T11:47:07.750Z,6.07
2019-02-18T11:49:34.251Z,5.60
2019-02-18T11:52:01.132Z,5.30
2019-02-18T11:54:27.859Z,5.83
2019-02-18T11:56:54.415Z,5.53
2019-02-18T11:59:24.341Z,4.73
2019-02-18T12:01:49.361Z,5.40
2019-02-18T12:04:15.841Z,5.27
2019-02-18T12:06:44.611Z,5.03
2019-02-18T12:09:11.495Z,5.23
2019-02-18T12:11:38.552Z,4.80
2019-02-18T12:14:06.139Z,4.40
2019-02-18T12:16:32.944Z,5.33
2019-02-18T12:18:59.498Z,4.93
2019-02-18T12:21:26.026Z,5.50
2019-02-18T12:23:53.861Z,5.57
2019-02-18T12:26:20.368Z,5.13
2019-02-18T12:28:47.536Z,5.57
2019-02-18T12:31:14.075Z,4.83
2019-02-18T12:33:40.588Z,4.93
2019-02-18T12:36:07.110Z,4.93
2019-02-18T12:38:33.613Z,5.10
2019-02-18T12:41:00.391Z,5.33
2019-02-18T12:43:29.306Z,5.03
2019-02-18T12:45:55.616Z,5.60
2019-02-18T12:48:22.375Z,5.23
2019-02-18T12:50:48.890Z,5.07
2019-02-18T12:53:15.551Z,5.40
2019-02-18T12:55:42.372Z,5.43
2019-02-18T12:58:08.901Z,4.40
2019-02-18T13:00:36.731Z,4.90
2019-02-18T13:03:03.439Z,5.20
2019-02-18T13:05:29.992Z,4.93
2019-02-18T13:07:56.631Z,5.03
2019-02-18T13:10:23.364Z,5.27
2019-02-18T13:12:50.187Z,5.57
2019-02-18T13:15:16.896Z,6.20
2019-02-18T13:17:43.697Z,6.57
2019-02-18T13:20:10.249Z,6.17
2019-02-18T13:22:37.033Z,6.67
2019-02-18T13:25:04.892Z,5.90
2019-02-18T13:27:31.430Z,5.63
2019-02-18T13:29:58.269Z,6.10
2019-02-18T13:32:25.378Z,5.60
2019-02-18T13:34:51.940Z,5.40
2019-02-18T13:37:18.469Z,6.40
2019-02-18T13:39:46.328Z,5.03
2019-02-18T13:42:12.852Z,6.00
2019-02-18T13:44:39.345Z,5.10
2019-02-18T13:47:05.892Z,5.80
2019-02-18T13:49:32.692Z,6.07
2019-02-18T13:52:00.212Z,5.93
2019-02-18T13:54:26.750Z,5.87
2019-02-18T13:56:53.257Z,6.67
2019-02-18T13:59:19.801Z,7.07
2019-02-18T14:01:46.420Z,6.47
2019-02-18T14:04:13.144Z,6.80
2019-02-18T14:06:39.650Z,6.10
2019-02-18T14:09:06.654Z,6.13
2019-02-18T14:11:33.183Z,6.93
2019-02-18T14:14:02.501Z,5.63
2019-02-18T14:16:29.359Z,6.30
2019-02-18T14:18:55.935Z,6.87
2019-02-18T14:21:22.437Z,6.27
2019-02-18T14:23:49.038Z,5.57
2019-02-18T14:26:15.661Z,5.37
2019-02-18T14:28:42.520Z,6.03
2019-02-18T14:31:09.057Z,6.57
2019-02-18T14:33:35.610Z,5.73
2019-02-18T14:36:02.566Z,5.90
2019-02-18T14:38:29.412Z,5.50
2019-02-18T14:40:56.352Z,5.97
2019-02-18T14:43:23.214Z,5.53
2019-02-18T14:45:50.308Z,5.83
2019-02-18T14:48:16.985Z,5.53
2019-02-18T14:50:43.840Z,5.57
2019-02-18T14:53:10.796Z,5.27
2019-02-18T14:55:37.439Z,7.40
2019-02-18T14:58:04.337Z,6.60
2019-02-18T15:00:30.978Z,5.93
2019-02-18T15:02:59.538Z,6.37
2019-02-18T15:05:26.539Z,5.90
2019-02-18T15:07:55.420Z,7.15
2019-02-18T15:10:23.388Z,6.23
2019-02-18T15:12:50.191Z,6.07
2019-02-18T15:15:17.214Z,5.77
2019-02-18T15:17:44.003Z,5.97
2019-02-18T15:20:11.575Z,5.60
2019-02-18T15:22:38.996Z,5.40
2019-02-18T15:25:07.577Z,5.30
2019-02-18T15:27:34.463Z,4.87
2019-02-18T15:30:01.303Z,5.17
2019-02-18T15:32:27.805Z,4.57
2019-02-18T15:34:54.347Z,4.43
2019-02-18T15:37:21.518Z,4.80
2019-02-18T15:39:48.406Z,4.90
2019-02-18T15:42:16.207Z,5.40
2019-02-18T15:44:42.846Z,5.33
2019-02-18T15:47:10.525Z,4.93
2019-02-18T15:49:38.304Z,4.20
2019-02-18T15:52:05.324Z,5.10
2019-02-18T15:54:32.088Z,4.50
2019-02-18T15:56:59.176Z,4.77
2019-02-18T15:59:26.054Z,5.07
2019-02-18T16:01:52.853Z,4.73
2019-02-18T16:04:19.613Z,4.17
2019-02-18T16:06:46.191Z,5.27
2019-02-18T16:09:12.995Z,5.57
2019-02-18T16:11:39.811Z,5.97
2019-02-18T16:14:06.330Z,4.93
2019-02-18T16:16:33.151Z,5.27
2019-02-18T16:18:59.774Z,6.30
2019-02-18T16:21:26.568Z,6.13
2019-02-18T16:23:53.095Z,6.80
2019-02-18T16:26:21.768Z,6.13
2019-02-18T16:28:50.286Z,6.53
2019-02-18T16:31:17.053Z,5.90
2019-02-18T16:33:43.579Z,7.27
2019-02-18T16:36:10.174Z,10.50
2019-02-18T16:38:36.784Z,15.40
2019-02-18T16:41:03.324Z,13.83
2019-02-18T16:43:31.466Z,11.63
2019-02-18T16:45:58.250Z,11.43
2019-02-18T16:48:25.420Z,9.17
2019-02-18T16:50:51.951Z,12.00
2019-02-18T16:53:18.875Z,10.77
2019-02-18T16:55:45.389Z,11.93
2019-02-18T16:58:12.103Z,12.53
2019-02-18T17:00:38.807Z,9.70
2019-02-18T17:03:05.319Z,8.87
2019-02-18T17:05:31.827Z,7.73
2019-02-18T17:07:58.376Z,7.57
2019-02-18T17:10:25.637Z,6.83
2019-02-18T17:12:52.146Z,7.77
2019-02-18T17:15:19.073Z,6.63
2019-02-18T17:17:45.864Z,6.67
2019-02-18T17:20:12.518Z,6.87
2019-02-18T17:22:40.007Z,8.43
2019-02-18T17:25:11.107Z,6.87
2019-02-18T17:27:37.595Z,8.03
2019-02-18T17:33:01.449Z,7.47
2019-02-18T17:35:29.238Z,8.37
2019-02-18T17:37:55.767Z,7.43
2019-02-18T17:40:22.625Z,7.50
2019-02-18T17:42:49.099Z,7.73
2019-02-18T17:45:16.595Z,6.40
2019-02-18T17:47:43.459Z,7.20
2019-02-18T17:50:12.775Z,5.67
2019-02-18T17:52:39.539Z,5.53
2019-02-18T17:55:08.889Z,7.10
2019-02-18T17:57:35.983Z,6.00
2019-02-18T18:00:05.319Z,6.23
2019-02-18T18:02:32.014Z,7.80
2019-02-18T18:04:58.472Z,7.27
2019-02-18T18:07:25.004Z,5.43
2019-02-18T18:09:51.703Z,5.87
2019-02-18T18:12:18.395Z,6.37
2019-02-18T18:14:45.006Z,6.13
2019-02-18T18:17:11.743Z,5.67
2019-02-18T18:19:38.639Z,6.20
2019-02-18T18:22:06.592Z,5.27
2019-02-18T18:24:33.388Z,5.83
2019-02-18T18:26:59.942Z,5.03
2019-02-18T18:29:26.694Z,4.90
2019-02-18T18:31:53.119Z,6.30
2019-02-18T18:34:19.748Z,5.80
2019-02-18T18:36:46.240Z,5.57
2019-02-18T18:39:12.759Z,5.87
2019-02-18T18:41:39.298Z,5.30
2019-02-18T18:44:05.802Z,4.90
2019-02-18T18:46:32.323Z,5.23
2019-02-18T18:48:58.952Z,5.40
2019-02-18T18:51:25.574Z,9.33
2019-02-18T18:53:52.328Z,11.50
2019-02-18T18:56:19.122Z,9.30
2019-02-18T18:58:45.644Z,10.27
2019-02-18T19:01:12.150Z,11.17
2019-02-18T19:03:38.703Z,12.70
2019-02-18T19:06:06.511Z,11.90
2019-02-18T19:08:33.305Z,10.97
2019-02-18T19:11:00.390Z,10.83
2019-02-18T19:13:27.199Z,11.07
2019-02-18T19:15:53.704Z,9.90
2019-02-18T19:18:20.299Z,10.63
2019-02-18T19:20:46.735Z,9.93
2019-02-18T19:23:13.533Z,10.90
2019-02-18T19:25:40.050Z,9.33
2019-02-18T19:28:06.595Z,9.80
2019-02-18T19:30:33.087Z,10.33
2019-02-18T19:32:59.891Z,8.83
2019-02-18T19:35:26.447Z,7.97
2019-02-18T19:37:53.234Z,7.60
2019-02-18T19:40:20.002Z,6.73
2019-02-18T19:42:46.519Z,6.77
2019-02-18T19:45:16.458Z,6.20
2019-02-18T19:47:43.271Z,6.40
2019-02-18T19:50:09.810Z,6.13
2019-02-18T19:52:36.343Z,7.97
2019-02-18T19:55:05.268Z,7.00
2019-02-18T19:57:31.795Z,6.10
2019-02-18T19:59:58.387Z,7.23
2019-02-18T20:02:25.168Z,6.20
2019-02-18T20:04:52.298Z,6.10
2019-02-18T20:07:19.822Z,5.23
2019-02-18T20:09:48.255Z,5.33
2019-02-18T20:12:15.787Z,8.17
2019-02-18T20:14:42.669Z,9.03
2019-02-18T20:17:09.343Z,7.77
2019-02-18T20:19:35.902Z,7.87
2019-02-18T20:22:02.955Z,7.33
2019-02-18T20:24:29.494Z,7.63
2019-02-18T20:26:56.260Z,7.83
2019-02-18T20:29:23.087Z,6.27
2019-02-18T20:31:50.730Z,7.13
2019-02-18T20:34:18.347Z,7.70
2019-02-18T20:36:45.148Z,5.77
2019-02-18T20:39:14.155Z,9.73
2019-02-18T20:41:40.673Z,8.40
2019-02-18T20:44:07.755Z,8.07
2019-02-18T20:46:34.275Z,8.83
2019-02-18T20:49:00.805Z,8.60
2019-02-18T20:51:27.592Z,9.53
2019-02-18T20:53:54.104Z,8.93
2019-02-18T20:56:20.944Z,8.30
2019-02-18T20:58:47.492Z,7.70
2019-02-18T21:01:14.263Z,7.60
2019-02-18T21:03:40.796Z,7.17
2019-02-18T21:06:07.315Z,6.77
2019-02-18T21:08:33.720Z,7.73
2019-02-18T21:11:00.251Z,8.37
2019-02-18T21:13:27.760Z,8.20
2019-02-18T21:15:54.731Z,8.57
2019-02-18T21:18:21.532Z,9.77
2019-02-18T21:20:48.269Z,8.20
2019-02-18T21:23:14.821Z,7.43
2019-02-18T21:25:41.454Z,6.57
2019-02-18T21:28:08.245Z,7.10
2019-02-18T21:30:34.995Z,6.60
2019-02-18T21:33:01.561Z,8.13
2019-02-18T21:35:28.359Z,6.27
2019-02-18T21:37:55.360Z,6.77
2019-02-18T21:40:21.917Z,6.90
2019-02-18T21:42:48.694Z,5.60
2019-02-18T21:45:15.247Z,5.17
2019-02-18T21:47:41.873Z,4.43
2019-02-18T21:50:09.471Z,7.87
2019-02-18T21:52:36.318Z,7.27
2019-02-18T21:55:03.524Z,5.87
2019-02-18T21:57:30.288Z,5.30
2019-02-18T21:59:56.799Z,5.33
2019-02-18T22:02:23.450Z,6.07
2019-02-18T22:04:50.279Z,6.03
2019-02-18T22:07:17.004Z,6.73
2019-02-18T22:09:43.630Z,6.43
2019-02-18T22:12:11.435Z,6.77
2019-02-18T22:14:38.085Z,5.57
2019-02-18T22:17:04.604Z,6.37
2019-02-18T22:19:31.121Z,6.83
2019-02-18T22:21:57.928Z,6.67
2019-02-18T22:24:24.432Z,7.30
2019-02-18T22:26:50.942Z,6.10
2019-02-18T22:29:17.718Z,6.67
2019-02-18T22:31:44.907Z,6.33
2019-02-18T22:34:11.450Z,6.77
2019-02-18T22:36:38.275Z,5.87
2019-02-18T22:39:06.976Z,6.93
2019-02-18T22:41:33.754Z,7.43
2019-02-18T22:44:00.373Z,6.90
2019-02-18T22:46:26.902Z,9.03
2019-02-18T22:48:53.419Z,7.67
2019-02-18T22:51:20.231Z,6.83
2019-02-18T22:53:46.659Z,7.63
2019-02-18T22:56:13.433Z,6.77
2019-02-18T22:58:40.072Z,6.80
2019-02-18T23:01:06.692Z,6.77
2019-02-18T23:03:34.211Z,7.13
2019-02-18T23:06:00.780Z,6.13
2019-02-18T23:08:27.488Z,6.00
2019-02-18T23:10:55.294Z,6.17
2019-02-18T23:13:22.108Z,6.03
2019-02-18T23:15:49.094Z,6.00
2019-02-18T23:18:15.545Z,5.40
2019-02-18T23:20:42.180Z,4.67
2019-02-18T23:23:09.520Z,4.90
2019-02-18T23:25:36.323Z,7.10
2019-02-18T23:28:02.953Z,5.30
2019-02-18T23:30:29.490Z,4.43
2019-02-18T23:32:56.242Z,4.33
2019-02-18T23:35:22.739Z,4.57
2019-02-18T23:37:49.269Z,4.93
2019-02-18T23:40:15.987Z,5.87
2019-02-18T23:42:42.418Z,6.63
2019-02-18T23:45:09.042Z,6.23
2019-02-18T23:47:35.691Z,7.83
2019-02-18T23:50:02.309Z,8.63
2019-02-18T23:52:29.085Z,7.00
2019-02-18T23:54:55.647Z,7.57
2019-02-18T23:57:22.511Z,7.47
2019-02-18T23:59:49.359Z,6.57
